sensor_id;sensor_type;location;lat;lon;timestamp;P1;durP1;ratioP1;P2;durP2;ratioP2
70369;SDS011;57790;51.356;-2.906;2023-11-22T00:02:59;7.67;;;1.77;;
70369;SDS011;57790;51.356;-2.906;2023-11-22T00:05:59;7.13;;;1.70;;
70369;SDS011;57790;51.356;-2.906;2023-11-22T00:09:01;4.68;;;1.38;;
70369;SDS011;57790;51.356;-2.906;2023-11-22T00:12:01;5.83;;;1.47;;
70369;SDS011;57790;51.356;-2.906;2023-11-22T00:15:03;6.07;;;1.45;;
70369;SDS011;57790;51.356;-2.906;2023-11-22T00:18:05;5.88;;;1.58;;
70369;SDS011;57790;51.356;-2.906;2023-11-22T00:21:06;5.80;;;1.57;;
70369;SDS011;57790;51.356;-2.906;2023-11-22T00:24:07;5.23;;;1.60;;
70369;SDS011;57790;51.356;-2.906;2023-11-22T00:27:08;5.55;;;1.60;;
70369;SDS011;57790;51.356;-2.906;2023-11-22T00:30:10;5.80;;;1.52;;
70369;SDS011;57790;51.356;-2.906;2023-11-22T00:33:11;6.47;;;1.67;;
70369;SDS011;57790;51.356;-2.906;2023-11-22T00:36:11;5.90;;;1.67;;
70369;SDS011;57790;51.356;-2.906;2023-11-22T00:39:12;5.37;;;1.30;;
70369;SDS011;57790;51.356;-2.906;2023-11-22T00:42:13;6.65;;;1.63;;
70369;SDS011;57790;51.356;-2.906;2023-11-22T00:45:13;6.27;;;1.70;;
70369;SDS011;57790;51.356;-2.906;2023-11-22T00:48:14;6.63;;;1.80;;
70369;SDS011;57790;51.356;-2.906;2023-11-22T00:51:14;6.17;;;1.40;;
70369;SDS011;57790;51.356;-2.906;2023-11-22T00:54:16;6.15;;;1.90;;
70369;SDS011;57790;51.356;-2.906;2023-11-22T00:57:16;5.30;;;1.50;;
70369;SDS011;57790;51.356;-2.906;2023-11-22T01:00:17;6.07;;;1.60;;
70369;SDS011;57790;51.356;-2.906;2023-11-22T01:03:17;5.87;;;1.30;;
70369;SDS011;57790;51.356;-2.906;2023-11-22T01:06:18;7.07;;;1.70;;
70369;SDS011;57790;51.356;-2.906;2023-11-22T01:09:18;5.37;;;1.40;;
70369;SDS011;57790;51.356;-2.906;2023-11-22T01:12:19;5.13;;;1.30;;
70369;SDS011;57790;51.356;-2.906;2023-11-22T01:15:19;5.90;;;1.20;;
70369;SDS011;57790;51.356;-2.906;2023-11-22T01:18:20;7.03;;;1.60;;
70369;SDS011;57790;51.356;-2.906;2023-11-22T01:21:20;6.93;;;1.70;;
70369;SDS011;57790;51.356;-2.906;2023-11-22T01:24:20;6.97;;;1.50;;
70369;SDS011;57790;51.356;-2.906;2023-11-22T01:27:21;6.27;;;1.57;;
70369;SDS011;57790;51.356;-2.906;2023-11-22T01:30:21;7.33;;;1.80;;
70369;SDS011;57790;51.356;-2.906;2023-11-22T01:33:22;6.53;;;1.77;;
70369;SDS011;57790;51.356;-2.906;2023-11-22T01:36:22;6.00;;;1.52;;
70369;SDS011;57790;51.356;-2.906;2023-11-22T01:39:23;7.20;;;1.60;;
70369;SDS011;57790;51.356;-2.906;2023-11-22T01:42:23;5.97;;;1.70;;
70369;SDS011;57790;51.356;-2.906;2023-11-22T01:45:25;5.82;;;1.80;;
70369;SDS011;57790;51.356;-2.906;2023-11-22T01:48:26;5.87;;;1.53;;
70369;SDS011;57790;51.356;-2.906;2023-11-22T01:51:26;5.80;;;1.60;;
70369;SDS011;57790;51.356;-2.906;2023-11-22T01:54:27;5.73;;;1.70;;
70369;SDS011;57790;51.356;-2.906;2023-11-22T01:57:30;6.63;;;1.60;;
70369;SDS011;57790;51.356;-2.906;2023-11-22T02:00:44;6.20;;;1.55;;
70369;SDS011;57790;51.356;-2.906;2023-11-22T02:03:48;6.53;;;1.80;;
70369;SDS011;57790;51.356;-2.906;2023-11-22T02:06:49;5.77;;;1.37;;
70369;SDS011;57790;51.356;-2.906;2023-11-22T02:09:51;5.50;;;1.50;;
70369;SDS011;57790;51.356;-2.906;2023-11-22T02:12:53;5.83;;;1.40;;
70369;SDS011;57790;51.356;-2.906;2023-11-22T02:15:53;5.78;;;1.40;;
70369;SDS011;57790;51.356;-2.906;2023-11-22T02:18:56;5.57;;;1.50;;
70369;SDS011;57790;51.356;-2.906;2023-11-22T02:21:56;6.00;;;1.70;;
70369;SDS011;57790;51.356;-2.906;2023-11-22T02:24:56;6.27;;;1.40;;
70369;SDS011;57790;51.356;-2.906;2023-11-22T02:27:57;4.70;;;1.23;;
70369;SDS011;57790;51.356;-2.906;2023-11-22T02:30:57;5.57;;;1.40;;
70369;SDS011;57790;51.356;-2.906;2023-11-22T02:33:58;5.90;;;1.70;;
70369;SDS011;57790;51.356;-2.906;2023-11-22T02:36:58;7.80;;;1.60;;
70369;SDS011;57790;51.356;-2.906;2023-11-22T02:40:09;5.57;;;1.63;;
70369;SDS011;57790;51.356;-2.906;2023-11-22T02:43:12;6.38;;;1.50;;
70369;SDS011;57790;51.356;-2.906;2023-11-22T02:46:12;6.57;;;1.50;;
70369;SDS011;57790;51.356;-2.906;2023-11-22T02:49:14;4.82;;;1.25;;
70369;SDS011;57790;51.356;-2.906;2023-11-22T02:52:14;5.23;;;1.40;;
70369;SDS011;57790;51.356;-2.906;2023-11-22T02:55:14;5.93;;;1.30;;
70369;SDS011;57790;51.356;-2.906;2023-11-22T02:58:15;6.13;;;1.50;;
70369;SDS011;57790;51.356;-2.906;2023-11-22T03:01:16;5.95;;;1.48;;
70369;SDS011;57790;51.356;-2.906;2023-11-22T03:04:17;8.48;;;1.65;;
70369;SDS011;57790;51.356;-2.906;2023-11-22T03:07:17;5.40;;;1.30;;
70369;SDS011;57790;51.356;-2.906;2023-11-22T03:10:18;5.70;;;1.60;;
70369;SDS011;57790;51.356;-2.906;2023-11-22T03:13:18;5.93;;;1.40;;
70369;SDS011;57790;51.356;-2.906;2023-11-22T03:16:19;6.90;;;1.40;;
70369;SDS011;57790;51.356;-2.906;2023-11-22T03:19:19;5.73;;;1.43;;
70369;SDS011;57790;51.356;-2.906;2023-11-22T03:22:20;5.70;;;1.37;;
70369;SDS011;57790;51.356;-2.906;2023-11-22T03:25:20;5.90;;;1.50;;
70369;SDS011;57790;51.356;-2.906;2023-11-22T03:28:21;6.57;;;1.47;;
70369;SDS011;57790;51.356;-2.906;2023-11-22T03:31:22;6.13;;;1.50;;
70369;SDS011;57790;51.356;-2.906;2023-11-22T03:34:22;4.03;;;1.10;;
70369;SDS011;57790;51.356;-2.906;2023-11-22T03:37:23;5.23;;;1.40;;
70369;SDS011;57790;51.356;-2.906;2023-11-22T03:40:24;6.15;;;1.45;;
70369;SDS011;57790;51.356;-2.906;2023-11-22T03:43:24;5.30;;;1.53;;
70369;SDS011;57790;51.356;-2.906;2023-11-22T03:46:25;5.60;;;1.53;;
70369;SDS011;57790;51.356;-2.906;2023-11-22T03:49:25;4.97;;;1.10;;
70369;SDS011;57790;51.356;-2.906;2023-11-22T03:52:25;4.67;;;1.20;;
70369;SDS011;57790;51.356;-2.906;2023-11-22T03:55:27;5.35;;;1.30;;
70369;SDS011;57790;51.356;-2.906;2023-11-22T03:58:28;5.07;;;1.40;;
70369;SDS011;57790;51.356;-2.906;2023-11-22T04:01:28;5.83;;;1.40;;
70369;SDS011;57790;51.356;-2.906;2023-11-22T04:04:28;5.17;;;1.30;;
70369;SDS011;57790;51.356;-2.906;2023-11-22T04:07:30;4.45;;;1.23;;
70369;SDS011;57790;51.356;-2.906;2023-11-22T04:10:30;4.93;;;1.40;;
70369;SDS011;57790;51.356;-2.906;2023-11-22T04:13:31;4.20;;;1.03;;
70369;SDS011;57790;51.356;-2.906;2023-11-22T04:16:31;5.03;;;1.20;;
70369;SDS011;57790;51.356;-2.906;2023-11-22T04:19:32;4.33;;;1.20;;
70369;SDS011;57790;51.356;-2.906;2023-11-22T04:22:32;4.43;;;1.17;;
70369;SDS011;57790;51.356;-2.906;2023-11-22T04:25:34;4.38;;;1.00;;
70369;SDS011;57790;51.356;-2.906;2023-11-22T04:28:35;5.80;;;1.20;;
70369;SDS011;57790;51.356;-2.906;2023-11-22T04:31:35;4.17;;;1.07;;
70369;SDS011;57790;51.356;-2.906;2023-11-22T04:34:35;4.10;;;1.20;;
70369;SDS011;57790;51.356;-2.906;2023-11-22T04:37:36;4.10;;;1.00;;
70369;SDS011;57790;51.356;-2.906;2023-11-22T04:40:37;5.03;;;1.05;;
70369;SDS011;57790;51.356;-2.906;2023-11-22T04:43:37;5.53;;;1.50;;
70369;SDS011;57790;51.356;-2.906;2023-11-22T04:46:37;3.43;;;1.00;;
70369;SDS011;57790;51.356;-2.906;2023-11-22T04:49:38;6.85;;;1.30;;
70369;SDS011;57790;51.356;-2.906;2023-11-22T04:52:38;6.13;;;1.30;;
70369;SDS011;57790;51.356;-2.906;2023-11-22T04:55:39;3.87;;;1.10;;
70369;SDS011;57790;51.356;-2.906;2023-11-22T04:58:40;4.00;;;1.00;;
70369;SDS011;57790;51.356;-2.906;2023-11-22T05:01:40;4.33;;;1.27;;
70369;SDS011;57790;51.356;-2.906;2023-11-22T05:04:40;4.43;;;1.30;;
70369;SDS011;57790;51.356;-2.906;2023-11-22T05:07:42;4.27;;;1.00;;
70369;SDS011;57790;51.356;-2.906;2023-11-22T05:10:44;7.47;;;1.30;;
70369;SDS011;57790;51.356;-2.906;2023-11-22T05:13:45;3.53;;;1.17;;
70369;SDS011;57790;51.356;-2.906;2023-11-22T05:16:45;3.50;;;0.97;;
70369;SDS011;57790;51.356;-2.906;2023-11-22T05:19:45;3.20;;;0.90;;
70369;SDS011;57790;51.356;-2.906;2023-11-22T05:22:46;4.67;;;1.17;;
70369;SDS011;57790;51.356;-2.906;2023-11-22T05:25:47;4.40;;;1.23;;
70369;SDS011;57790;51.356;-2.906;2023-11-22T05:28:47;5.17;;;1.07;;
70369;SDS011;57790;51.356;-2.906;2023-11-22T05:31:48;3.87;;;1.10;;
70369;SDS011;57790;51.356;-2.906;2023-11-22T05:34:48;4.17;;;1.10;;
70369;SDS011;57790;51.356;-2.906;2023-11-22T05:37:49;3.47;;;1.13;;
70369;SDS011;57790;51.356;-2.906;2023-11-22T05:40:49;4.23;;;1.10;;
70369;SDS011;57790;51.356;-2.906;2023-11-22T05:43:49;4.90;;;1.30;;
70369;SDS011;57790;51.356;-2.906;2023-11-22T05:46:50;4.60;;;1.27;;
70369;SDS011;57790;51.356;-2.906;2023-11-22T05:49:50;4.63;;;1.20;;
70369;SDS011;57790;51.356;-2.906;2023-11-22T05:52:51;4.75;;;1.02;;
70369;SDS011;57790;51.356;-2.906;2023-11-22T05:55:52;4.25;;;1.00;;
70369;SDS011;57790;51.356;-2.906;2023-11-22T05:58:53;3.97;;;1.20;;
70369;SDS011;57790;51.356;-2.906;2023-11-22T06:01:53;4.77;;;1.27;;
70369;SDS011;57790;51.356;-2.906;2023-11-22T06:04:54;4.18;;;1.17;;
70369;SDS011;57790;51.356;-2.906;2023-11-22T06:07:54;3.67;;;1.20;;
70369;SDS011;57790;51.356;-2.906;2023-11-22T06:10:55;4.83;;;1.20;;
70369;SDS011;57790;51.356;-2.906;2023-11-22T06:13:58;4.10;;;1.25;;
70369;SDS011;57790;51.356;-2.906;2023-11-22T06:16:58;4.10;;;1.00;;
70369;SDS011;57790;51.356;-2.906;2023-11-22T06:19:59;5.07;;;1.20;;
70369;SDS011;57790;51.356;-2.906;2023-11-22T06:22:59;4.43;;;0.98;;
70369;SDS011;57790;51.356;-2.906;2023-11-22T06:26:00;4.03;;;1.03;;
70369;SDS011;57790;51.356;-2.906;2023-11-22T06:29:00;3.83;;;1.13;;
70369;SDS011;57790;51.356;-2.906;2023-11-22T06:32:00;4.10;;;1.08;;
70369;SDS011;57790;51.356;-2.906;2023-11-22T06:35:01;4.47;;;1.17;;
70369;SDS011;57790;51.356;-2.906;2023-11-22T06:38:02;3.40;;;0.90;;
70369;SDS011;57790;51.356;-2.906;2023-11-22T06:41:04;3.55;;;1.00;;
70369;SDS011;57790;51.356;-2.906;2023-11-22T06:44:04;4.47;;;1.13;;
70369;SDS011;57790;51.356;-2.906;2023-11-22T06:47:05;3.92;;;0.93;;
70369;SDS011;57790;51.356;-2.906;2023-11-22T06:50:07;4.38;;;1.08;;
70369;SDS011;57790;51.356;-2.906;2023-11-22T06:53:12;2.17;;;0.73;;
70369;SDS011;57790;51.356;-2.906;2023-11-22T06:56:12;4.35;;;0.88;;
70369;SDS011;57790;51.356;-2.906;2023-11-22T06:59:13;2.97;;;0.90;;
70369;SDS011;57790;51.356;-2.906;2023-11-22T07:02:13;4.90;;;1.17;;
70369;SDS011;57790;51.356;-2.906;2023-11-22T07:05:14;5.32;;;1.35;;
70369;SDS011;57790;51.356;-2.906;2023-11-22T07:08:14;4.17;;;1.10;;
70369;SDS011;57790;51.356;-2.906;2023-11-22T07:11:22;4.65;;;1.10;;
70369;SDS011;57790;51.356;-2.906;2023-11-22T07:14:26;4.93;;;1.10;;
70369;SDS011;57790;51.356;-2.906;2023-11-22T07:17:26;4.17;;;1.00;;
70369;SDS011;57790;51.356;-2.906;2023-11-22T07:20:28;4.07;;;1.30;;
70369;SDS011;57790;51.356;-2.906;2023-11-22T07:23:29;4.30;;;1.00;;
70369;SDS011;57790;51.356;-2.906;2023-11-22T07:26:29;3.73;;;1.00;;
70369;SDS011;57790;51.356;-2.906;2023-11-22T07:29:30;3.93;;;1.00;;
70369;SDS011;57790;51.356;-2.906;2023-11-22T07:32:32;2.92;;;0.82;;
70369;SDS011;57790;51.356;-2.906;2023-11-22T07:35:34;3.20;;;0.80;;
70369;SDS011;57790;51.356;-2.906;2023-11-22T07:38:35;5.07;;;1.00;;
70369;SDS011;57790;51.356;-2.906;2023-11-22T07:41:35;4.73;;;1.00;;
70369;SDS011;57790;51.356;-2.906;2023-11-22T07:44:36;4.25;;;1.00;;
70369;SDS011;57790;51.356;-2.906;2023-11-22T07:47:37;3.97;;;1.17;;
70369;SDS011;57790;51.356;-2.906;2023-11-22T07:50:41;4.83;;;0.90;;
70369;SDS011;57790;51.356;-2.906;2023-11-22T07:53:45;2.95;;;0.77;;
70369;SDS011;57790;51.356;-2.906;2023-11-22T07:56:45;4.10;;;1.00;;
70369;SDS011;57790;51.356;-2.906;2023-11-22T07:59:47;4.00;;;0.90;;
70369;SDS011;57790;51.356;-2.906;2023-11-22T08:02:48;3.77;;;0.97;;
70369;SDS011;57790;51.356;-2.906;2023-11-22T08:05:49;3.38;;;0.85;;
70369;SDS011;57790;51.356;-2.906;2023-11-22T08:08:50;4.43;;;1.00;;
70369;SDS011;57790;51.356;-2.906;2023-11-22T08:11:51;4.90;;;1.17;;
70369;SDS011;57790;51.356;-2.906;2023-11-22T08:14:52;4.13;;;0.90;;
70369;SDS011;57790;51.356;-2.906;2023-11-22T08:17:55;4.18;;;0.90;;
70369;SDS011;57790;51.356;-2.906;2023-11-22T08:20:56;3.57;;;1.10;;
70369;SDS011;57790;51.356;-2.906;2023-11-22T08:23:56;4.03;;;0.90;;
70369;SDS011;57790;51.356;-2.906;2023-11-22T08:26:56;4.23;;;0.90;;
70369;SDS011;57790;51.356;-2.906;2023-11-22T08:29:58;4.43;;;1.20;;
70369;SDS011;57790;51.356;-2.906;2023-11-22T08:32:59;3.30;;;0.90;;
70369;SDS011;57790;51.356;-2.906;2023-11-22T08:35:59;3.60;;;1.00;;
70369;SDS011;57790;51.356;-2.906;2023-11-22T08:39:01;2.97;;;0.93;;
70369;SDS011;57790;51.356;-2.906;2023-11-22T08:42:03;6.80;;;1.05;;
70369;SDS011;57790;51.356;-2.906;2023-11-22T08:45:09;3.97;;;0.82;;
70369;SDS011;57790;51.356;-2.906;2023-11-22T08:48:11;5.63;;;1.10;;
70369;SDS011;57790;51.356;-2.906;2023-11-22T08:51:14;5.13;;;1.00;;
70369;SDS011;57790;51.356;-2.906;2023-11-22T08:54:15;4.18;;;0.80;;
70369;SDS011;57790;51.356;-2.906;2023-11-22T08:57:17;5.30;;;1.00;;
70369;SDS011;57790;51.356;-2.906;2023-11-22T09:00:18;4.65;;;1.00;;
70369;SDS011;57790;51.356;-2.906;2023-11-22T09:03:28;4.43;;;1.00;;
70369;SDS011;57790;51.356;-2.906;2023-11-22T09:06:28;7.83;;;1.20;;
70369;SDS011;57790;51.356;-2.906;2023-11-22T09:09:29;5.07;;;1.08;;
70369;SDS011;57790;51.356;-2.906;2023-11-22T09:12:30;4.40;;;0.90;;
70369;SDS011;57790;51.356;-2.906;2023-11-22T09:15:31;3.27;;;0.70;;
70369;SDS011;57790;51.356;-2.906;2023-11-22T09:18:33;3.45;;;0.75;;
70369;SDS011;57790;51.356;-2.906;2023-11-22T09:21:34;6.37;;;1.33;;
70369;SDS011;57790;51.356;-2.906;2023-11-22T09:24:35;4.75;;;0.95;;
70369;SDS011;57790;51.356;-2.906;2023-11-22T09:27:37;5.23;;;1.00;;
70369;SDS011;57790;51.356;-2.906;2023-11-22T09:30:37;5.27;;;1.00;;
70369;SDS011;57790;51.356;-2.906;2023-11-22T09:33:37;5.00;;;0.90;;
70369;SDS011;57790;51.356;-2.906;2023-11-22T09:36:38;3.67;;;1.00;;
70369;SDS011;57790;51.356;-2.906;2023-11-22T09:39:39;4.50;;;1.20;;
70369;SDS011;57790;51.356;-2.906;2023-11-22T09:42:39;5.65;;;1.02;;
70369;SDS011;57790;51.356;-2.906;2023-11-22T09:45:41;4.77;;;0.90;;
70369;SDS011;57790;51.356;-2.906;2023-11-22T09:48:42;5.80;;;1.10;;
70369;SDS011;57790;51.356;-2.906;2023-11-22T09:51:45;3.47;;;0.97;;
70369;SDS011;57790;51.356;-2.906;2023-11-22T09:54:48;2.97;;;0.80;;
70369;SDS011;57790;51.356;-2.906;2023-11-22T09:57:50;4.10;;;0.80;;
70369;SDS011;57790;51.356;-2.906;2023-11-22T10:00:52;3.80;;;0.98;;
70369;SDS011;57790;51.356;-2.906;2023-11-22T10:03:59;3.67;;;0.90;;
70369;SDS011;57790;51.356;-2.906;2023-11-22T10:07:00;2.97;;;0.83;;
70369;SDS011;57790;51.356;-2.906;2023-11-22T10:10:01;3.27;;;0.90;;
70369;SDS011;57790;51.356;-2.906;2023-11-22T10:13:05;3.60;;;0.82;;
70369;SDS011;57790;51.356;-2.906;2023-11-22T10:16:14;4.90;;;1.03;;
70369;SDS011;57790;51.356;-2.906;2023-11-22T10:19:18;3.08;;;0.80;;
70369;SDS011;57790;51.356;-2.906;2023-11-22T10:22:18;2.80;;;0.90;;
70369;SDS011;57790;51.356;-2.906;2023-11-22T10:25:20;2.70;;;0.80;;
70369;SDS011;57790;51.356;-2.906;2023-11-22T10:28:26;5.18;;;1.08;;
70369;SDS011;57790;51.356;-2.906;2023-11-22T10:31:28;3.13;;;0.82;;
70369;SDS011;57790;51.356;-2.906;2023-11-22T10:34:29;3.30;;;0.80;;
70369;SDS011;57790;51.356;-2.906;2023-11-22T10:37:29;3.40;;;1.00;;
70369;SDS011;57790;51.356;-2.906;2023-11-22T10:40:29;3.27;;;0.70;;
70369;SDS011;57790;51.356;-2.906;2023-11-22T10:43:30;3.77;;;0.97;;
70369;SDS011;57790;51.356;-2.906;2023-11-22T10:46:32;4.22;;;0.93;;
70369;SDS011;57790;51.356;-2.906;2023-11-22T10:49:33;3.77;;;0.87;;
70369;SDS011;57790;51.356;-2.906;2023-11-22T10:52:34;3.72;;;0.90;;
70369;SDS011;57790;51.356;-2.906;2023-11-22T10:55:38;3.53;;;0.90;;
70369;SDS011;57790;51.356;-2.906;2023-11-22T10:58:48;2.63;;;0.80;;
70369;SDS011;57790;51.356;-2.906;2023-11-22T11:01:49;3.28;;;0.85;;
70369;SDS011;57790;51.356;-2.906;2023-11-22T11:04:58;3.33;;;0.80;;
70369;SDS011;57790;51.356;-2.906;2023-11-22T11:08:08;4.10;;;0.90;;
70369;SDS011;57790;51.356;-2.906;2023-11-22T11:11:11;3.70;;;0.87;;
70369;SDS011;57790;51.356;-2.906;2023-11-22T11:14:13;6.70;;;1.20;;
70369;SDS011;57790;51.356;-2.906;2023-11-22T11:17:15;5.13;;;0.90;;
70369;SDS011;57790;51.356;-2.906;2023-11-22T11:20:17;4.88;;;0.80;;
70369;SDS011;57790;51.356;-2.906;2023-11-22T11:23:20;4.35;;;0.90;;
70369;SDS011;57790;51.356;-2.906;2023-11-22T11:26:25;4.07;;;1.00;;
70369;SDS011;57790;51.356;-2.906;2023-11-22T11:29:29;3.93;;;0.77;;
70369;SDS011;57790;51.356;-2.906;2023-11-22T11:32:33;4.68;;;0.98;;
70369;SDS011;57790;51.356;-2.906;2023-11-22T11:35:54;3.50;;;1.00;;
70369;SDS011;57790;51.356;-2.906;2023-11-22T11:38:57;4.47;;;1.30;;
70369;SDS011;57790;51.356;-2.906;2023-11-22T11:42:10;3.77;;;1.00;;
70369;SDS011;57790;51.356;-2.906;2023-11-22T11:45:11;5.47;;;0.82;;
70369;SDS011;57790;51.356;-2.906;2023-11-22T11:48:12;4.77;;;1.00;;
70369;SDS011;57790;51.356;-2.906;2023-11-22T11:51:14;5.18;;;1.08;;
70369;SDS011;57790;51.356;-2.906;2023-11-22T11:54:15;6.57;;;0.90;;
70369;SDS011;57790;51.356;-2.906;2023-11-22T11:57:16;4.80;;;0.82;;
70369;SDS011;57790;51.356;-2.906;2023-11-22T12:00:17;2.97;;;0.53;;
70369;SDS011;57790;51.356;-2.906;2023-11-22T12:03:18;3.00;;;0.77;;
70369;SDS011;57790;51.356;-2.906;2023-11-22T12:06:21;4.13;;;0.60;;
70369;SDS011;57790;51.356;-2.906;2023-11-22T12:09:22;3.42;;;0.60;;
70369;SDS011;57790;51.356;-2.906;2023-11-22T12:12:26;4.80;;;0.85;;
70369;SDS011;57790;51.356;-2.906;2023-11-22T12:15:28;3.10;;;0.50;;
70369;SDS011;57790;51.356;-2.906;2023-11-22T12:18:29;3.67;;;0.70;;
70369;SDS011;57790;51.356;-2.906;2023-11-22T12:21:32;3.92;;;0.50;;
70369;SDS011;57790;51.356;-2.906;2023-11-22T12:24:33;5.20;;;0.60;;
70369;SDS011;57790;51.356;-2.906;2023-11-22T12:27:37;3.73;;;0.67;;
70369;SDS011;57790;51.356;-2.906;2023-11-22T12:30:39;2.30;;;0.55;;
70369;SDS011;57790;51.356;-2.906;2023-11-22T12:33:42;3.67;;;0.50;;
70369;SDS011;57790;51.356;-2.906;2023-11-22T12:36:43;3.80;;;0.52;;
70369;SDS011;57790;51.356;-2.906;2023-11-22T12:39:47;3.10;;;0.60;;
70369;SDS011;57790;51.356;-2.906;2023-11-22T12:42:48;2.83;;;0.50;;
70369;SDS011;57790;51.356;-2.906;2023-11-22T12:45:57;3.00;;;0.50;;
70369;SDS011;57790;51.356;-2.906;2023-11-22T12:49:05;3.08;;;0.50;;
70369;SDS011;57790;51.356;-2.906;2023-11-22T12:52:06;4.00;;;0.70;;
70369;SDS011;57790;51.356;-2.906;2023-11-22T12:55:07;3.43;;;0.70;;
70369;SDS011;57790;51.356;-2.906;2023-11-22T12:58:08;6.88;;;0.75;;
70369;SDS011;57790;51.356;-2.906;2023-11-22T13:01:09;3.33;;;0.50;;
70369;SDS011;57790;51.356;-2.906;2023-11-22T13:04:09;3.53;;;0.50;;
70369;SDS011;57790;51.356;-2.906;2023-11-22T13:07:10;6.40;;;0.52;;
70369;SDS011;57790;51.356;-2.906;2023-11-22T13:10:10;3.20;;;0.47;;
70369;SDS011;57790;51.356;-2.906;2023-11-22T13:13:11;1.43;;;0.50;;
70369;SDS011;57790;51.356;-2.906;2023-11-22T13:16:12;5.10;;;0.60;;
70369;SDS011;57790;51.356;-2.906;2023-11-22T13:19:14;6.28;;;0.50;;
70369;SDS011;57790;51.356;-2.906;2023-11-22T13:22:14;2.80;;;0.40;;
70369;SDS011;57790;51.356;-2.906;2023-11-22T13:25:14;3.40;;;0.50;;
70369;SDS011;57790;51.356;-2.906;2023-11-22T13:28:17;4.30;;;0.60;;
70369;SDS011;57790;51.356;-2.906;2023-11-22T13:31:18;2.67;;;0.60;;
70369;SDS011;57790;51.356;-2.906;2023-11-22T13:34:18;3.10;;;0.43;;
70369;SDS011;57790;51.356;-2.906;2023-11-22T13:37:21;2.70;;;0.50;;
70369;SDS011;57790;51.356;-2.906;2023-11-22T13:40:23;3.28;;;0.52;;
70369;SDS011;57790;51.356;-2.906;2023-11-22T13:43:25;4.25;;;0.77;;
70369;SDS011;57790;51.356;-2.906;2023-11-22T13:46:25;1.40;;;0.50;;
70369;SDS011;57790;51.356;-2.906;2023-11-22T13:49:26;4.70;;;0.70;;
70369;SDS011;57790;51.356;-2.906;2023-11-22T13:52:26;4.85;;;0.60;;
70369;SDS011;57790;51.356;-2.906;2023-11-22T13:55:27;5.57;;;0.80;;
70369;SDS011;57790;51.356;-2.906;2023-11-22T13:58:28;3.67;;;0.50;;
70369;SDS011;57790;51.356;-2.906;2023-11-22T14:01:29;1.90;;;0.55;;
70369;SDS011;57790;51.356;-2.906;2023-11-22T14:04:29;2.72;;;0.60;;
70369;SDS011;57790;51.356;-2.906;2023-11-22T14:07:30;3.47;;;0.73;;
70369;SDS011;57790;51.356;-2.906;2023-11-22T14:10:31;3.50;;;0.83;;
70369;SDS011;57790;51.356;-2.906;2023-11-22T14:13:31;2.60;;;0.60;;
70369;SDS011;57790;51.356;-2.906;2023-11-22T14:16:31;3.50;;;0.50;;
70369;SDS011;57790;51.356;-2.906;2023-11-22T14:19:32;1.90;;;0.50;;
70369;SDS011;57790;51.356;-2.906;2023-11-22T14:22:32;4.63;;;0.60;;
70369;SDS011;57790;51.356;-2.906;2023-11-22T14:25:33;2.90;;;0.60;;
70369;SDS011;57790;51.356;-2.906;2023-11-22T14:28:33;1.53;;;0.50;;
70369;SDS011;57790;51.356;-2.906;2023-11-22T14:31:33;2.70;;;0.57;;
70369;SDS011;57790;51.356;-2.906;2023-11-22T14:34:34;2.43;;;0.50;;
70369;SDS011;57790;51.356;-2.906;2023-11-22T14:37:35;2.47;;;0.67;;
70369;SDS011;57790;51.356;-2.906;2023-11-22T14:40:37;2.20;;;0.50;;
70369;SDS011;57790;51.356;-2.906;2023-11-22T14:43:39;3.72;;;0.50;;
70369;SDS011;57790;51.356;-2.906;2023-11-22T14:46:40;3.57;;;0.40;;
70369;SDS011;57790;51.356;-2.906;2023-11-22T14:49:40;3.53;;;0.50;;
70369;SDS011;57790;51.356;-2.906;2023-11-22T14:52:41;3.70;;;0.63;;
70369;SDS011;57790;51.356;-2.906;2023-11-22T14:55:43;2.08;;;0.50;;
70369;SDS011;57790;51.356;-2.906;2023-11-22T14:58:45;3.47;;;0.38;;
70369;SDS011;57790;51.356;-2.906;2023-11-22T15:01:52;3.95;;;0.50;;
70369;SDS011;57790;51.356;-2.906;2023-11-22T15:04:54;1.90;;;0.30;;
70369;SDS011;57790;51.356;-2.906;2023-11-22T15:07:54;3.55;;;0.82;;
70369;SDS011;57790;51.356;-2.906;2023-11-22T15:10:55;1.83;;;0.40;;
70369;SDS011;57790;51.356;-2.906;2023-11-22T15:13:55;2.30;;;0.43;;
70369;SDS011;57790;51.356;-2.906;2023-11-22T15:16:55;2.80;;;0.60;;
70369;SDS011;57790;51.356;-2.906;2023-11-22T15:19:56;2.67;;;0.60;;
70369;SDS011;57790;51.356;-2.906;2023-11-22T15:22:56;6.87;;;0.60;;
70369;SDS011;57790;51.356;-2.906;2023-11-22T15:25:57;4.70;;;0.63;;
70369;SDS011;57790;51.356;-2.906;2023-11-22T15:28:59;2.35;;;0.57;;
70369;SDS011;57790;51.356;-2.906;2023-11-22T15:31:59;2.57;;;0.53;;
70369;SDS011;57790;51.356;-2.906;2023-11-22T15:35:00;5.35;;;0.75;;
70369;SDS011;57790;51.356;-2.906;2023-11-22T15:38:01;4.87;;;0.80;;
70369;SDS011;57790;51.356;-2.906;2023-11-22T15:41:01;2.33;;;0.63;;
70369;SDS011;57790;51.356;-2.906;2023-11-22T15:44:02;3.90;;;0.73;;
70369;SDS011;57790;51.356;-2.906;2023-11-22T15:47:03;3.70;;;0.70;;
70369;SDS011;57790;51.356;-2.906;2023-11-22T15:50:08;4.80;;;1.00;;
70369;SDS011;57790;51.356;-2.906;2023-11-22T15:53:10;2.77;;;0.70;;
70369;SDS011;57790;51.356;-2.906;2023-11-22T15:56:13;3.95;;;0.80;;
70369;SDS011;57790;51.356;-2.906;2023-11-22T15:59:16;4.55;;;0.80;;
70369;SDS011;57790;51.356;-2.906;2023-11-22T16:02:17;4.07;;;0.80;;
70369;SDS011;57790;51.356;-2.906;2023-11-22T16:05:17;3.85;;;0.75;;
70369;SDS011;57790;51.356;-2.906;2023-11-22T16:08:19;5.18;;;0.77;;
70369;SDS011;57790;51.356;-2.906;2023-11-22T16:11:19;5.33;;;0.73;;
70369;SDS011;57790;51.356;-2.906;2023-11-22T16:14:19;6.60;;;1.03;;
70369;SDS011;57790;51.356;-2.906;2023-11-22T16:17:20;3.57;;;0.70;;
70369;SDS011;57790;51.356;-2.906;2023-11-22T16:20:20;4.28;;;0.85;;
70369;SDS011;57790;51.356;-2.906;2023-11-22T16:23:22;4.70;;;0.80;;
70369;SDS011;57790;51.356;-2.906;2023-11-22T16:26:22;4.00;;;0.70;;
70369;SDS011;57790;51.356;-2.906;2023-11-22T16:29:23;2.40;;;0.70;;
70369;SDS011;57790;51.356;-2.906;2023-11-22T16:32:24;5.88;;;0.73;;
70369;SDS011;57790;51.356;-2.906;2023-11-22T16:35:24;3.37;;;0.70;;
70369;SDS011;57790;51.356;-2.906;2023-11-22T16:38:26;4.87;;;0.90;;
70369;SDS011;57790;51.356;-2.906;2023-11-22T16:41:26;3.65;;;0.85;;
70369;SDS011;57790;51.356;-2.906;2023-11-22T16:44:27;6.17;;;1.03;;
70369;SDS011;57790;51.356;-2.906;2023-11-22T16:47:28;7.55;;;1.05;;
70369;SDS011;57790;51.356;-2.906;2023-11-22T16:50:29;4.90;;;0.77;;
70369;SDS011;57790;51.356;-2.906;2023-11-22T16:53:29;8.13;;;1.10;;
70369;SDS011;57790;51.356;-2.906;2023-11-22T16:56:29;5.05;;;0.93;;
70369;SDS011;57790;51.356;-2.906;2023-11-22T16:59:30;5.03;;;1.10;;
70369;SDS011;57790;51.356;-2.906;2023-11-22T17:02:30;5.27;;;1.13;;
70369;SDS011;57790;51.356;-2.906;2023-11-22T17:05:31;6.70;;;1.37;;
70369;SDS011;57790;51.356;-2.906;2023-11-22T17:08:31;8.35;;;1.20;;
70369;SDS011;57790;51.356;-2.906;2023-11-22T17:11:32;5.13;;;1.10;;
70369;SDS011;57790;51.356;-2.906;2023-11-22T17:14:32;5.07;;;0.97;;
70369;SDS011;57790;51.356;-2.906;2023-11-22T17:17:33;8.48;;;1.10;;
70369;SDS011;57790;51.356;-2.906;2023-11-22T17:20:35;5.10;;;0.93;;
70369;SDS011;57790;51.356;-2.906;2023-11-22T17:23:35;8.83;;;1.20;;
70369;SDS011;57790;51.356;-2.906;2023-11-22T17:26:36;5.53;;;1.30;;
70369;SDS011;57790;51.356;-2.906;2023-11-22T17:29:36;3.70;;;0.90;;
70369;SDS011;57790;51.356;-2.906;2023-11-22T17:32:37;5.40;;;1.00;;
70369;SDS011;57790;51.356;-2.906;2023-11-22T17:35:38;5.63;;;1.07;;
70369;SDS011;57790;51.356;-2.906;2023-11-22T17:38:39;4.35;;;1.00;;
70369;SDS011;57790;51.356;-2.906;2023-11-22T17:41:39;6.47;;;1.07;;
70369;SDS011;57790;51.356;-2.906;2023-11-22T17:44:40;6.37;;;1.20;;
70369;SDS011;57790;51.356;-2.906;2023-11-22T17:47:40;6.60;;;1.10;;
70369;SDS011;57790;51.356;-2.906;2023-11-22T17:50:41;3.73;;;1.07;;
70369;SDS011;57790;51.356;-2.906;2023-11-22T17:53:43;5.72;;;1.40;;
70369;SDS011;57790;51.356;-2.906;2023-11-22T17:56:43;5.63;;;1.23;;